sensor_id;sensor_type;location;lat;lon;timestamp;pressure;altitude;pressure_sealevel;temperature;humidity
24834;BME280;12914;43.702;22.862;2022-08-11T00:00:10;99153.00;;;30.84;54.32
24834;BME280;12914;43.702;22.862;2022-08-11T00:02:40;99151.78;;;30.79;54.56
24834;BME280;12914;43.702;22.862;2022-08-11T00:05:10;99157.84;;;30.55;55.12
24834;BME280;12914;43.702;22.862;2022-08-11T00:07:43;99160.44;;;30.45;55.30
24834;BME280;12914;43.702;22.862;2022-08-11T00:10:14;99167.13;;;30.01;57.96
24834;BME280;12914;43.702;22.862;2022-08-11T00:12:41;99158.81;;;30.37;57.55
24834;BME280;12914;43.702;22.862;2022-08-11T00:15:08;99159.41;;;30.56;54.69
24834;BME280;12914;43.702;22.862;2022-08-11T00:17:35;99165.41;;;30.71;55.08
24834;BME280;12914;43.702;22.862;2022-08-11T00:20:09;99158.97;;;30.52;54.41
24834;BME280;12914;43.702;22.862;2022-08-11T00:22:37;99149.47;;;30.99;53.88
24834;BME280;12914;43.702;22.862;2022-08-11T00:25:11;99156.25;;;31.01;53.65
24834;BME280;12914;43.702;22.862;2022-08-11T00:27:39;99155.69;;;31.03;52.79
24834;BME280;12914;43.702;22.862;2022-08-11T00:30:07;99162.78;;;30.47;54.52
24834;BME280;12914;43.702;22.862;2022-08-11T00:32:34;99168.47;;;30.00;57.67
24834;BME280;12914;43.702;22.862;2022-08-11T00:35:03;99152.75;;;28.78;62.76
24834;BME280;12914;43.702;22.862;2022-08-11T00:37:29;99146.16;;;29.87;60.08
24834;BME280;12914;43.702;22.862;2022-08-11T00:39:56;99147.91;;;30.30;56.12
24834;BME280;12914;43.702;22.862;2022-08-11T00:48:18;99142.38;;;31.21;52.71
24834;BME280;12914;43.702;22.862;2022-08-11T01:13:18;99137.94;;;30.65;54.96
24834;BME280;12914;43.702;22.862;2022-08-11T01:30:46;99140.91;;;30.38;54.00
24834;BME280;12914;43.702;22.862;2022-08-11T01:55:59;99156.16;;;30.26;63.17
24834;BME280;12914;43.702;22.862;2022-08-11T01:58:41;99150.59;;;29.75;67.48
24834;BME280;12914;43.702;22.862;2022-08-11T02:12:23;99148.00;;;31.05;61.88
24834;BME280;12914;43.702;22.862;2022-08-11T02:15:07;99137.06;;;31.82;58.97
24834;BME280;12914;43.702;22.862;2022-08-11T02:18:20;99141.09;;;31.50;59.38
24834;BME280;12914;43.702;22.862;2022-08-11T02:20:56;99136.28;;;29.69;66.64
24834;BME280;12914;43.702;22.862;2022-08-11T02:23:58;99133.09;;;30.80;62.42
24834;BME280;12914;43.702;22.862;2022-08-11T02:26:33;99137.91;;;30.31;61.82
24834;BME280;12914;43.702;22.862;2022-08-11T02:29:23;99130.69;;;30.92;57.94
24834;BME280;12914;43.702;22.862;2022-08-11T02:31:57;99138.50;;;31.39;57.44
24834;BME280;12914;43.702;22.862;2022-08-11T02:42:37;99127.59;;;29.82;72.11
24834;BME280;12914;43.702;22.862;2022-08-11T02:45:44;99135.28;;;30.06;67.19
24834;BME280;12914;43.702;22.862;2022-08-11T02:53:57;99134.66;;;30.47;64.82
24834;BME280;12914;43.702;22.862;2022-08-11T02:56:47;99126.91;;;30.29;65.78
24834;BME280;12914;43.702;22.862;2022-08-11T03:02:34;99139.53;;;28.70;70.72
24834;BME280;12914;43.702;22.862;2022-08-11T03:10:50;99134.72;;;30.21;65.41
24834;BME280;12914;43.702;22.862;2022-08-11T03:14:18;99141.25;;;30.35;63.74
24834;BME280;12914;43.702;22.862;2022-08-11T03:20:02;99147.34;;;30.99;60.77
24834;BME280;12914;43.702;22.862;2022-08-11T03:25:14;99150.28;;;30.18;64.22
24834;BME280;12914;43.702;22.862;2022-08-11T03:28:03;99148.81;;;30.25;63.58
24834;BME280;12914;43.702;22.862;2022-08-11T03:33:32;99144.94;;;30.22;64.57
24834;BME280;12914;43.702;22.862;2022-08-11T04:12:08;99157.94;;;30.97;61.83
24834;BME280;12914;43.702;22.862;2022-08-11T04:26:20;99157.56;;;31.34;61.80
24834;BME280;12914;43.702;22.862;2022-08-11T04:48:21;99144.25;;;30.16;67.60
24834;BME280;12914;43.702;22.862;2022-08-11T04:51:47;99150.13;;;29.97;69.07
24834;BME280;12914;43.702;22.862;2022-08-11T05:04:15;99157.44;;;31.68;59.14
24834;BME280;12914;43.702;22.862;2022-08-11T05:07:26;99151.06;;;31.41;62.95
24834;BME280;12914;43.702;22.862;2022-08-11T05:10:28;99159.25;;;30.75;66.08
24834;BME280;12914;43.702;22.862;2022-08-11T05:13:04;99159.69;;;30.79;67.29
24834;BME280;12914;43.702;22.862;2022-08-11T05:15:53;99157.16;;;30.75;67.39
24834;BME280;12914;43.702;22.862;2022-08-11T05:18:48;99163.78;;;31.04;67.99
24834;BME280;12914;43.702;22.862;2022-08-11T05:21:34;99161.59;;;30.29;69.63
24834;BME280;12914;43.702;22.862;2022-08-11T05:24:22;99166.09;;;31.40;64.60
24834;BME280;12914;43.702;22.862;2022-08-11T05:27:09;99168.56;;;32.21;61.68
24834;BME280;12914;43.702;22.862;2022-08-11T05:30:04;99162.22;;;33.48;56.17
24834;BME280;12914;43.702;22.862;2022-08-11T05:33:11;99167.19;;;33.17;55.90
24834;BME280;12914;43.702;22.862;2022-08-11T05:39:16;99169.38;;;33.55;54.65
24834;BME280;12914;43.702;22.862;2022-08-11T05:42:04;99167.59;;;32.47;57.81
24834;BME280;12914;43.702;22.862;2022-08-11T05:44:50;99161.63;;;31.18;63.25
24834;BME280;12914;43.702;22.862;2022-08-11T05:47:36;99166.81;;;31.33;62.71
24834;BME280;12914;43.702;22.862;2022-08-11T05:50:21;99170.09;;;32.15;60.89
24834;BME280;12914;43.702;22.862;2022-08-11T05:53:09;99164.06;;;31.27;65.74
24834;BME280;12914;43.702;22.862;2022-08-11T05:55:54;99169.75;;;31.61;64.11
24834;BME280;12914;43.702;22.862;2022-08-11T05:58:43;99177.63;;;31.32;63.01
24834;BME280;12914;43.702;22.862;2022-08-11T06:01:22;99186.91;;;32.96;58.43
24834;BME280;12914;43.702;22.862;2022-08-11T06:03:53;99171.97;;;32.33;59.89
24834;BME280;12914;43.702;22.862;2022-08-11T06:06:45;99171.66;;;31.59;63.43
24834;BME280;12914;43.702;22.862;2022-08-11T06:09:20;99170.16;;;31.65;62.80
24834;BME280;12914;43.702;22.862;2022-08-11T06:11:48;99177.56;;;31.25;64.17
24834;BME280;12914;43.702;22.862;2022-08-11T06:14:14;99184.53;;;31.29;63.37
24834;BME280;12914;43.702;22.862;2022-08-11T06:16:40;99166.25;;;31.84;62.21
24834;BME280;12914;43.702;22.862;2022-08-11T06:19:08;99183.06;;;32.21;61.93
24834;BME280;12914;43.702;22.862;2022-08-11T06:21:34;99185.94;;;31.36;63.53
24834;BME280;12914;43.702;22.862;2022-08-11T06:24:12;99181.66;;;31.79;61.25
24834;BME280;12914;43.702;22.862;2022-08-11T06:26:40;99181.69;;;31.58;61.69
24834;BME280;12914;43.702;22.862;2022-08-11T06:29:05;99186.56;;;30.53;65.50
24834;BME280;12914;43.702;22.862;2022-08-11T06:44:14;99182.94;;;31.98;61.75
24834;BME280;12914;43.702;22.862;2022-08-11T06:46:43;99180.09;;;32.06;60.51
24834;BME280;12914;43.702;22.862;2022-08-11T06:49:12;99184.31;;;30.93;63.11
24834;BME280;12914;43.702;22.862;2022-08-11T06:52:02;99189.06;;;32.23;60.19
24834;BME280;12914;43.702;22.862;2022-08-11T06:54:29;99177.59;;;32.97;57.04
24834;BME280;12914;43.702;22.862;2022-08-11T06:56:57;99185.38;;;32.51;58.12
24834;BME280;12914;43.702;22.862;2022-08-11T06:59:43;99174.94;;;32.48;56.63
24834;BME280;12914;43.702;22.862;2022-08-11T07:02:31;99195.63;;;33.04;56.12
24834;BME280;12914;43.702;22.862;2022-08-11T07:07:52;99198.81;;;33.82;52.55
24834;BME280;12914;43.702;22.862;2022-08-11T07:13:55;99186.00;;;32.65;56.50
24834;BME280;12914;43.702;22.862;2022-08-11T07:16:43;99194.94;;;33.87;53.19
24834;BME280;12914;43.702;22.862;2022-08-11T07:19:10;99198.16;;;34.14;52.87
24834;BME280;12914;43.702;22.862;2022-08-11T07:21:56;99192.50;;;30.34;63.20
24834;BME280;12914;43.702;22.862;2022-08-11T07:25:04;99199.47;;;31.83;60.52
24834;BME280;12914;43.702;22.862;2022-08-11T07:27:59;99200.97;;;31.76;60.66
24834;BME280;12914;43.702;22.862;2022-08-11T07:30:44;99205.50;;;31.43;62.44
24834;BME280;12914;43.702;22.862;2022-08-11T07:33:12;99198.09;;;31.34;60.94
24834;BME280;12914;43.702;22.862;2022-08-11T07:35:45;99200.22;;;30.66;63.88
24834;BME280;12914;43.702;22.862;2022-08-11T07:38:21;99196.09;;;31.50;63.95
24834;BME280;12914;43.702;22.862;2022-08-11T07:40:48;99192.94;;;31.90;59.08
24834;BME280;12914;43.702;22.862;2022-08-11T07:43:14;99197.91;;;29.98;67.58
24834;BME280;12914;43.702;22.862;2022-08-11T07:45:45;99203.81;;;31.27;61.91
24834;BME280;12914;43.702;22.862;2022-08-11T07:48:30;99202.34;;;31.83;61.35
24834;BME280;12914;43.702;22.862;2022-08-11T07:51:20;99204.81;;;30.48;66.95
24834;BME280;12914;43.702;22.862;2022-08-11T07:54:04;99203.72;;;30.11;66.08
24834;BME280;12914;43.702;22.862;2022-08-11T07:56:34;99210.84;;;31.18;62.35
24834;BME280;12914;43.702;22.862;2022-08-11T07:59:02;99210.94;;;30.44;64.35
24834;BME280;12914;43.702;22.862;2022-08-11T08:01:47;99208.16;;;30.39;66.28
24834;BME280;12914;43.702;22.862;2022-08-11T08:04:32;99209.47;;;29.08;68.17
24834;BME280;12914;43.702;22.862;2022-08-11T08:07:21;99191.47;;;31.26;61.86
24834;BME280;12914;43.702;22.862;2022-08-11T08:10:07;99203.00;;;31.68;60.33
24834;BME280;12914;43.702;22.862;2022-08-11T08:12:53;99202.53;;;31.35;60.11
24834;BME280;12914;43.702;22.862;2022-08-11T08:15:38;99192.66;;;30.97;56.89
24834;BME280;12914;43.702;22.862;2022-08-11T08:18:24;99206.09;;;33.14;55.21
24834;BME280;12914;43.702;22.862;2022-08-11T08:20:50;99206.09;;;34.36;50.93
24834;BME280;12914;43.702;22.862;2022-08-11T08:23:21;99202.34;;;32.83;54.22
24834;BME280;12914;43.702;22.862;2022-08-11T08:25:58;99196.88;;;33.39;53.95
24834;BME280;12914;43.702;22.862;2022-08-11T08:28:27;99193.06;;;34.93;49.54
24834;BME280;12914;43.702;22.862;2022-08-11T08:30:54;99195.69;;;33.64;51.08
24834;BME280;12914;43.702;22.862;2022-08-11T08:33:22;99202.41;;;34.20;49.01
24834;BME280;12914;43.702;22.862;2022-08-11T08:35:59;99194.13;;;33.94;51.72
24834;BME280;12914;43.702;22.862;2022-08-11T08:38:45;99201.56;;;35.80;46.74
24834;BME280;12914;43.702;22.862;2022-08-11T08:41:12;99200.22;;;34.51;48.85
24834;BME280;12914;43.702;22.862;2022-08-11T08:43:40;99196.69;;;35.01;48.33
24834;BME280;12914;43.702;22.862;2022-08-11T08:46:08;99201.81;;;33.08;52.59
24834;BME280;12914;43.702;22.862;2022-08-11T08:48:36;99200.06;;;33.12;51.59
24834;BME280;12914;43.702;22.862;2022-08-11T08:51:06;99196.47;;;33.42;51.87
24834;BME280;12914;43.702;22.862;2022-08-11T08:53:53;99200.16;;;34.67;49.10
24834;BME280;12914;43.702;22.862;2022-08-11T08:56:26;99202.94;;;35.22;47.06
24834;BME280;12914;43.702;22.862;2022-08-11T08:58:52;99195.69;;;34.66;48.14
24834;BME280;12914;43.702;22.862;2022-08-11T09:01:19;99187.31;;;36.44;44.31
24834;BME280;12914;43.702;22.862;2022-08-11T09:03:47;99194.13;;;38.00;42.06
24834;BME280;12914;43.702;22.862;2022-08-11T09:06:14;99178.50;;;39.64;39.07
24834;BME280;12914;43.702;22.862;2022-08-11T09:08:43;99193.19;;;36.02;42.68
24834;BME280;12914;43.702;22.862;2022-08-11T09:11:10;99185.03;;;35.83;44.35
24834;BME280;12914;43.702;22.862;2022-08-11T09:13:55;99179.28;;;37.69;42.49
24834;BME280;12914;43.702;22.862;2022-08-11T09:16:22;99178.16;;;36.74;41.81
24834;BME280;12914;43.702;22.862;2022-08-11T09:18:49;99168.75;;;36.32;42.69
24834;BME280;12914;43.702;22.862;2022-08-11T09:21:16;99167.22;;;36.31;42.44
24834;BME280;12914;43.702;22.862;2022-08-11T09:23:48;99170.69;;;37.45;39.95
24834;BME280;12914;43.702;22.862;2022-08-11T09:26:34;99173.50;;;35.68;44.24
24834;BME280;12914;43.702;22.862;2022-08-11T09:29:19;99172.78;;;37.61;41.75
24834;BME280;12914;43.702;22.862;2022-08-11T09:31:45;99161.47;;;36.58;42.21
24834;BME280;12914;43.702;22.862;2022-08-11T09:34:13;99172.56;;;35.08;44.63
24834;BME280;12914;43.702;22.862;2022-08-11T09:36:40;99164.28;;;34.01;46.64
24834;BME280;12914;43.702;22.862;2022-08-11T09:39:28;99153.75;;;37.70;41.59
24834;BME280;12914;43.702;22.862;2022-08-11T09:42:13;99156.47;;;39.03;37.52
24834;BME280;12914;43.702;22.862;2022-08-11T09:44:40;99153.50;;;40.48;36.67
24834;BME280;12914;43.702;22.862;2022-08-11T09:49:45;99136.06;;;39.65;36.69
24834;BME280;12914;43.702;22.862;2022-08-11T09:52:13;99145.34;;;40.26;34.97
24834;BME280;12914;43.702;22.862;2022-08-11T09:54:41;99138.13;;;40.38;35.33
24834;BME280;12914;43.702;22.862;2022-08-11T09:57:08;99144.25;;;41.20;35.60
24834;BME280;12914;43.702;22.862;2022-08-11T09:59:52;99129.97;;;40.15;34.32
24834;BME280;12914;43.702;22.862;2022-08-11T10:02:24;99129.13;;;38.79;35.36
24834;BME280;12914;43.702;22.862;2022-08-11T10:04:56;99120.97;;;40.89;34.26
24834;BME280;12914;43.702;22.862;2022-08-11T10:07:46;99123.06;;;42.43;33.45
24834;BME280;12914;43.702;22.862;2022-08-11T10:10:16;99108.72;;;41.74;31.51
24834;BME280;12914;43.702;22.862;2022-08-11T10:12:50;99117.94;;;40.33;34.17
24834;BME280;12914;43.702;22.862;2022-08-11T10:15:18;99121.06;;;42.70;33.11
24834;BME280;12914;43.702;22.862;2022-08-11T10:18:08;99117.34;;;42.07;32.78
24834;BME280;12914;43.702;22.862;2022-08-11T10:20:59;99118.97;;;41.27;33.94
24834;BME280;12914;43.702;22.862;2022-08-11T10:23:29;99112.16;;;41.47;32.74
24834;BME280;12914;43.702;22.862;2022-08-11T10:26:17;99105.81;;;42.62;33.08
24834;BME280;12914;43.702;22.862;2022-08-11T10:29:10;99106.53;;;43.14;31.01
24834;BME280;12914;43.702;22.862;2022-08-11T10:31:56;99112.31;;;41.38;32.08
24834;BME280;12914;43.702;22.862;2022-08-11T10:34:43;99105.00;;;41.74;31.47
24834;BME280;12914;43.702;22.862;2022-08-11T10:37:10;99100.22;;;39.88;34.10
24834;BME280;12914;43.702;22.862;2022-08-11T10:39:38;99100.94;;;41.67;31.54
24834;BME280;12914;43.702;22.862;2022-08-11T10:42:05;99109.06;;;42.29;31.81
24834;BME280;12914;43.702;22.862;2022-08-11T10:44:52;99100.00;;;40.17;33.85
24834;BME280;12914;43.702;22.862;2022-08-11T10:47:18;99097.69;;;40.37;32.95
24834;BME280;12914;43.702;22.862;2022-08-11T10:50:03;99102.34;;;38.63;34.53
24834;BME280;12914;43.702;22.862;2022-08-11T10:52:50;99096.41;;;39.64;33.75
24834;BME280;12914;43.702;22.862;2022-08-11T10:55:36;99085.66;;;40.66;32.36
24834;BME280;12914;43.702;22.862;2022-08-11T10:58:21;99087.91;;;40.22;33.43
24834;BME280;12914;43.702;22.862;2022-08-11T11:01:07;99088.16;;;39.72;33.47
24834;BME280;12914;43.702;22.862;2022-08-11T11:03:35;99087.75;;;37.77;35.45
24834;BME280;12914;43.702;22.862;2022-08-11T11:08:37;99069.31;;;43.48;30.14
24834;BME280;12914;43.702;22.862;2022-08-11T11:11:18;99065.91;;;42.98;30.39
24834;BME280;12914;43.702;22.862;2022-08-11T11:13:47;99057.75;;;43.38;29.51
24834;BME280;12914;43.702;22.862;2022-08-11T11:16:34;99062.53;;;43.18;29.05
24834;BME280;12914;43.702;22.862;2022-08-11T11:19:21;99054.88;;;44.24;29.01
24834;BME280;12914;43.702;22.862;2022-08-11T11:21:51;99050.31;;;44.37;27.37
24834;BME280;12914;43.702;22.862;2022-08-11T11:24:42;99059.84;;;41.81;30.77
24834;BME280;12914;43.702;22.862;2022-08-11T11:30:04;99043.19;;;42.87;29.52
24834;BME280;12914;43.702;22.862;2022-08-11T11:37:42;99042.13;;;40.74;30.60
24834;BME280;12914;43.702;22.862;2022-08-11T11:40:14;99046.31;;;41.76;30.65
24834;BME280;12914;43.702;22.862;2022-08-11T11:42:43;99033.47;;;43.67;28.96
24834;BME280;12914;43.702;22.862;2022-08-11T11:45:10;99030.44;;;44.83;27.13
24834;BME280;12914;43.702;22.862;2022-08-11T11:47:37;99027.94;;;45.25;25.88
24834;BME280;12914;43.702;22.862;2022-08-11T11:50:06;99020.56;;;43.88;27.15
24834;BME280;12914;43.702;22.862;2022-08-11T11:52:33;99026.31;;;44.74;27.49
24834;BME280;12914;43.702;22.862;2022-08-11T11:54:59;99029.03;;;45.83;26.12
24834;BME280;12914;43.702;22.862;2022-08-11T11:57:26;99030.63;;;43.55;26.88
24834;BME280;12914;43.702;22.862;2022-08-11T12:00:12;99019.03;;;44.16;26.46
24834;BME280;12914;43.702;22.862;2022-08-11T12:03:02;99018.31;;;44.02;26.63
24834;BME280;12914;43.702;22.862;2022-08-11T12:05:32;99017.41;;;42.74;28.83
24834;BME280;12914;43.702;22.862;2022-08-11T12:08:00;99016.69;;;42.62;29.45
24834;BME280;12914;43.702;22.862;2022-08-11T12:10:54;99019.63;;;42.48;29.26
24834;BME280;12914;43.702;22.862;2022-08-11T12:13:40;99013.09;;;41.62;29.80
24834;BME280;12914;43.702;22.862;2022-08-11T12:16:11;99015.88;;;41.71;29.75
24834;BME280;12914;43.702;22.862;2022-08-11T12:18:39;99015.88;;;41.60;31.09
24834;BME280;12914;43.702;22.862;2022-08-11T12:21:06;99022.13;;;43.20;29.50
24834;BME280;12914;43.702;22.862;2022-08-11T12:23:35;99015.34;;;45.24;26.41
24834;BME280;12914;43.702;22.862;2022-08-11T12:26:20;99007.25;;;43.59;27.06
24834;BME280;12914;43.702;22.862;2022-08-11T12:29:06;99008.94;;;44.51;26.63
24834;BME280;12914;43.702;22.862;2022-08-11T12:31:32;99005.06;;;44.94;26.68
24834;BME280;12914;43.702;22.862;2022-08-11T12:34:00;99004.38;;;45.78;24.29
24834;BME280;12914;43.702;22.862;2022-08-11T12:36:27;99003.53;;;44.93;26.26
24834;BME280;12914;43.702;22.862;2022-08-11T12:38:53;98989.69;;;45.13;25.45
24834;BME280;12914;43.702;22.862;2022-08-11T12:41:20;99000.97;;;44.40;26.81
24834;BME280;12914;43.702;22.862;2022-08-11T12:44:07;98992.31;;;44.28;26.66
24834;BME280;12914;43.702;22.862;2022-08-11T12:46:53;98984.31;;;44.01;26.81
24834;BME280;12914;43.702;22.862;2022-08-11T12:49:22;99000.16;;;42.68;28.84
24834;BME280;12914;43.702;22.862;2022-08-11T12:52:15;98989.72;;;43.20;27.67
24834;BME280;12914;43.702;22.862;2022-08-11T12:57:24;98976.94;;;41.36;28.02
24834;BME280;12914;43.702;22.862;2022-08-11T13:00:09;98976.88;;;41.96;28.31
24834;BME280;12914;43.702;22.862;2022-08-11T13:02:54;98977.91;;;41.52;28.87
24834;BME280;12914;43.702;22.862;2022-08-11T13:05:41;98968.66;;;39.94;30.03
24834;BME280;12914;43.702;22.862;2022-08-11T13:08:07;98975.88;;;41.66;29.11
24834;BME280;12914;43.702;22.862;2022-08-11T13:10:33;98968.91;;;43.59;26.90
24834;BME280;12914;43.702;22.862;2022-08-11T13:13:18;98970.94;;;43.84;27.08
24834;BME280;12914;43.702;22.862;2022-08-11T13:15:49;98977.75;;;41.25;28.40
24834;BME280;12914;43.702;22.862;2022-08-11T13:18:21;98970.72;;;40.60;30.63
24834;BME280;12914;43.702;22.862;2022-08-11T13:20:54;98973.59;;;43.64;26.21
24834;BME280;12914;43.702;22.862;2022-08-11T13:23:21;98970.03;;;43.25;26.24
24834;BME280;12914;43.702;22.862;2022-08-11T13:25:48;98970.59;;;43.92;26.82
24834;BME280;12914;43.702;22.862;2022-08-11T13:28:17;98960.41;;;43.95;26.61
24834;BME280;12914;43.702;22.862;2022-08-11T13:30:46;98958.13;;;44.70;25.43
24834;BME280;12914;43.702;22.862;2022-08-11T13:33:33;98959.50;;;44.83;25.14
24834;BME280;12914;43.702;22.862;2022-08-11T13:36:00;98960.88;;;46.91;23.25
24834;BME280;12914;43.702;22.862;2022-08-11T13:38:26;98957.66;;;47.05;22.99
24834;BME280;12914;43.702;22.862;2022-08-11T13:40:53;98951.84;;;46.69;22.87
24834;BME280;12914;43.702;22.862;2022-08-11T13:43:21;98956.25;;;47.48;21.82
24834;BME280;12914;43.702;22.862;2022-08-11T13:45:48;98957.16;;;47.74;23.07
24834;BME280;12914;43.702;22.862;2022-08-11T13:48:15;98952.34;;;48.78;21.85
24834;BME280;12914;43.702;22.862;2022-08-11T13:50:42;98949.94;;;44.53;24.09
24834;BME280;12914;43.702;22.862;2022-08-11T13:53:29;98953.16;;;46.09;24.83
24834;BME280;12914;43.702;22.862;2022-08-11T13:55:57;98951.56;;;45.88;23.57
24834;BME280;12914;43.702;22.862;2022-08-11T13:58:24;98944.88;;;47.62;22.72
24834;BME280;12914;43.702;22.862;2022-08-11T14:00:51;98940.59;;;46.66;24.43
24834;BME280;12914;43.702;22.862;2022-08-11T14:03:24;98952.13;;;46.20;23.39
24834;BME280;12914;43.702;22.862;2022-08-11T14:05:51;98947.03;;;46.98;22.87
24834;BME280;12914;43.702;22.862;2022-08-11T14:08:25;98942.25;;;46.13;23.27
24834;BME280;12914;43.702;22.862;2022-08-11T14:10:54;98945.31;;;45.80;22.99
24834;BME280;12914;43.702;22.862;2022-08-11T14:13:43;98947.75;;;45.34;22.93
24834;BME280;12914;43.702;22.862;2022-08-11T14:16:21;98949.91;;;46.96;23.20
24834;BME280;12914;43.702;22.862;2022-08-11T14:18:53;98941.03;;;45.16;23.80
24834;BME280;12914;43.702;22.862;2022-08-11T14:21:21;98937.63;;;43.25;25.19
24834;BME280;12914;43.702;22.862;2022-08-11T14:24:20;98935.91;;;43.63;25.27
24834;BME280;12914;43.702;22.862;2022-08-11T14:26:48;98943.06;;;42.62;25.03
24834;BME280;12914;43.702;22.862;2022-08-11T14:29:20;98934.09;;;42.07;26.13
24834;BME280;12914;43.702;22.862;2022-08-11T14:31:54;98933.72;;;42.26;26.05
24834;BME280;12914;43.702;22.862;2022-08-11T14:34:25;98936.03;;;42.94;25.67
24834;BME280;12914;43.702;22.862;2022-08-11T14:36:56;98938.22;;;41.76;27.00
24834;BME280;12914;43.702;22.862;2022-08-11T14:39:27;98940.69;;;41.68;26.64
24834;BME280;12914;43.702;22.862;2022-08-11T14:41:56;98938.91;;;41.14;26.80
24834;BME280;12914;43.702;22.862;2022-08-11T14:44:46;98934.50;;;40.78;27.05
24834;BME280;12914;43.702;22.862;2022-08-11T14:47:33;98939.44;;;40.99;26.67
24834;BME280;12914;43.702;22.862;2022-08-11T14:50:00;98941.69;;;39.53;27.85
24834;BME280;12914;43.702;22.862;2022-08-11T14:52:32;98931.44;;;40.08;27.76
24834;BME280;12914;43.702;22.862;2022-08-11T14:54:59;98933.66;;;39.86;27.03
24834;BME280;12914;43.702;22.862;2022-08-11T14:57:44;98939.56;;;39.44;27.52
24834;BME280;12914;43.702;22.862;2022-08-11T15:00:12;98920.47;;;39.43;27.90
24834;BME280;12914;43.702;22.862;2022-08-11T15:02:44;98928.50;;;39.97;26.94
24834;BME280;12914;43.702;22.862;2022-08-11T15:05:29;98918.72;;;40.27;26.50
24834;BME280;12914;43.702;22.862;2022-08-11T15:07:56;98920.38;;;40.18;27.14
24834;BME280;12914;43.702;22.862;2022-08-11T15:10:23;98925.50;;;39.52;26.68
24834;BME280;12914;43.702;22.862;2022-08-11T15:12:49;98925.34;;;41.58;25.36
24834;BME280;12914;43.702;22.862;2022-08-11T15:15:15;98924.28;;;43.81;23.38
24834;BME280;12914;43.702;22.862;2022-08-11T15:18:04;98925.44;;;44.35;22.56
24834;BME280;12914;43.702;22.862;2022-08-11T15:20:31;98917.34;;;43.04;23.06
24834;BME280;12914;43.702;22.862;2022-08-11T15:23:16;98917.88;;;42.59;23.91
24834;BME280;12914;43.702;22.862;2022-08-11T15:26:10;98925.03;;;42.03;24.99
24834;BME280;12914;43.702;22.862;2022-08-11T15:28:42;98914.19;;;40.59;25.77
24834;BME280;12914;43.702;22.862;2022-08-11T15:31:28;98922.78;;;41.27;25.47
24834;BME280;12914;43.702;22.862;2022-08-11T15:34:16;98908.38;;;40.26;25.80
24834;BME280;12914;43.702;22.862;2022-08-11T15:37:11;98910.59;;;39.05;26.80
24834;BME280;12914;43.702;22.862;2022-08-11T15:39:55;98910.63;;;39.93;26.22
24834;BME280;12914;43.702;22.862;2022-08-11T15:42:46;98916.94;;;39.77;27.90
24834;BME280;12914;43.702;22.862;2022-08-11T15:45:36;98921.03;;;39.84;29.07
24834;BME280;12914;43.702;22.862;2022-08-11T15:48:32;98917.31;;;39.72;28.92
24834;BME280;12914;43.702;22.862;2022-08-11T15:51:10;98906.38;;;38.15;29.56
24834;BME280;12914;43.702;22.862;2022-08-11T15:53:47;98904.41;;;39.65;28.73
24834;BME280;12914;43.702;22.862;2022-08-11T15:56:15;98903.13;;;40.13;28.81
24834;BME280;12914;43.702;22.862;2022-08-11T15:58:45;98897.47;;;42.49;25.78
24834;BME280;12914;43.702;22.862;2022-08-11T16:01:30;98902.19;;;42.68;25.58
24834;BME280;12914;43.702;22.862;2022-08-11T16:04:18;98906.69;;;41.65;26.77
24834;BME280;12914;43.702;22.862;2022-08-11T16:07:01;98905.50;;;42.35;26.22
24834;BME280;12914;43.702;22.862;2022-08-11T16:09:29;98905.25;;;42.31;26.19
24834;BME280;12914;43.702;22.862;2022-08-11T16:11:59;98907.72;;;43.17;25.17
24834;BME280;12914;43.702;22.862;2022-08-11T16:14:25;98904.28;;;44.24;24.62
24834;BME280;12914;43.702;22.862;2022-08-11T16:17:13;98903.00;;;43.98;25.29
24834;BME280;12914;43.702;22.862;2022-08-11T16:19:41;98907.72;;;43.30;25.07
24834;BME280;12914;43.702;22.862;2022-08-11T16:22:09;98910.88;;;42.52;25.77
24834;BME280;12914;43.702;22.862;2022-08-11T16:24:39;98908.69;;;43.35;25.06
24834;BME280;12914;43.702;22.862;2022-08-11T16:27:09;98913.13;;;42.01;25.65
24834;BME280;12914;43.702;22.862;2022-08-11T16:29:36;98908.44;;;41.96;26.39
24834;BME280;12914;43.702;22.862;2022-08-11T16:32:07;98908.97;;;42.31;25.55
24834;BME280;12914;43.702;22.862;2022-08-11T16:34:48;98913.16;;;41.38;26.56
24834;BME280;12914;43.702;22.862;2022-08-11T16:37:33;98912.59;;;41.65;26.12
24834;BME280;12914;43.702;22.862;2022-08-11T16:40:20;98916.13;;;41.27;26.43
24834;BME280;12914;43.702;22.862;2022-08-11T16:42:48;98917.06;;;41.06;26.86
24834;BME280;12914;43.702;22.862;2022-08-11T16:45:33;98918.78;;;40.86;26.97
24834;BME280;12914;43.702;22.862;2022-08-11T16:48:18;98924.38;;;39.90;27.76
24834;BME280;12914;43.702;22.862;2022-08-11T16:50:45;98920.50;;;39.76;28.26
24834;BME280;12914;43.702;22.862;2022-08-11T16:53:11;98923.81;;;39.27;28.74
24834;BME280;12914;43.702;22.862;2022-08-11T16:55:36;98926.78;;;39.06;29.25
24834;BME280;12914;43.702;22.862;2022-08-11T16:58:04;98923.63;;;38.21;30.19
24834;BME280;12914;43.702;22.862;2022-08-11T17:00:50;98938.19;;;37.51;31.64
24834;BME280;12914;43.702;22.862;2022-08-11T17:03:17;98939.09;;;37.73;31.44
24834;BME280;12914;43.702;22.862;2022-08-11T17:06:04;98944.47;;;37.86;31.74
24834;BME280;12914;43.702;22.862;2022-08-11T17:08:51;98951.56;;;37.83;32.16
24834;BME280;12914;43.702;22.862;2022-08-11T17:11:43;98940.94;;;38.38;31.10
24834;BME280;12914;43.702;22.862;2022-08-11T17:14:36;98946.41;;;38.22;31.85
24834;BME280;12914;43.702;22.862;2022-08-11T17:17:08;98942.25;;;38.16;31.51
24834;BME280;12914;43.702;22.862;2022-08-11T17:19:41;98954.31;;;37.81;31.90
24834;BME280;12914;43.702;22.862;2022-08-11T17:22:08;98955.50;;;37.11;32.62